sensor_id;sensor_type;location;lat;lon;timestamp;pressure;altitude;pressure_sealevel;temperature;humidity
60676;BME280;46716;38.014;-7.874;2022-12-18T12:05:12;100757.94;;;20.18;60.56
60676;BME280;46716;38.014;-7.874;2022-12-18T12:12:15;100740.16;;;20.42;57.35
60676;BME280;46716;38.014;-7.874;2022-12-18T12:14:33;100734.63;;;20.32;58.41
60676;BME280;46716;38.014;-7.874;2022-12-18T12:31:09;100727.56;;;19.67;61.40
60676;BME280;46716;38.014;-7.874;2022-12-18T12:38:08;100713.78;;;19.48;59.60
60676;BME280;46716;38.014;-7.874;2022-12-18T12:40:18;100711.00;;;19.62;59.36
60676;BME280;46716;38.014;-7.874;2022-12-18T12:42:35;100706.16;;;19.67;58.77
60676;BME280;46716;38.014;-7.874;2022-12-18T12:44:58;100716.84;;;19.67;60.92
60676;BME280;46716;38.014;-7.874;2022-12-18T12:47:14;100702.44;;;19.94;58.52
60676;BME280;46716;38.014;-7.874;2022-12-18T12:49:21;100702.75;;;19.52;59.62
60676;BME280;46716;38.014;-7.874;2022-12-18T12:51:29;100683.56;;;19.96;59.69
60676;BME280;46716;38.014;-7.874;2022-12-18T12:53:36;100700.72;;;19.56;61.32
60676;BME280;46716;38.014;-7.874;2022-12-18T12:55:39;100683.03;;;20.04;61.04
60676;BME280;46716;38.014;-7.874;2022-12-18T12:57:41;100684.47;;;20.45;59.41
60676;BME280;46716;38.014;-7.874;2022-12-18T13:02:28;100667.06;;;20.27;60.42
60676;BME280;46716;38.014;-7.874;2022-12-18T13:04:46;100670.59;;;20.03;56.50
60676;BME280;46716;38.014;-7.874;2022-12-18T13:07:01;100665.09;;;19.80;58.26
60676;BME280;46716;38.014;-7.874;2022-12-18T13:09:05;100653.16;;;19.84;60.16
60676;BME280;46716;38.014;-7.874;2022-12-18T13:11:30;100646.16;;;19.94;60.20
60676;BME280;46716;38.014;-7.874;2022-12-18T13:13:55;100651.09;;;20.01;60.07
60676;BME280;46716;38.014;-7.874;2022-12-18T13:16:07;100648.34;;;20.38;57.32
60676;BME280;46716;38.014;-7.874;2022-12-18T13:20:14;100625.47;;;20.45;56.29
60676;BME280;46716;38.014;-7.874;2022-12-18T13:22:24;100628.50;;;20.41;56.14
60676;BME280;46716;38.014;-7.874;2022-12-18T13:24:27;100639.13;;;20.18;56.96
60676;BME280;46716;38.014;-7.874;2022-12-18T13:26:32;100634.94;;;20.38;57.92
60676;BME280;46716;38.014;-7.874;2022-12-18T13:30:47;100630.31;;;19.91;59.50
60676;BME280;46716;38.014;-7.874;2022-12-18T13:37:42;100622.78;;;19.72;58.26
60676;BME280;46716;38.014;-7.874;2022-12-18T13:39:47;100611.00;;;19.24;58.77
60676;BME280;46716;38.014;-7.874;2022-12-18T13:41:50;100605.84;;;18.95;60.96
60676;BME280;46716;38.014;-7.874;2022-12-18T13:46:44;100607.34;;;19.25;61.25
60676;BME280;46716;38.014;-7.874;2022-12-18T13:49:16;100609.25;;;19.36;62.58
60676;BME280;46716;38.014;-7.874;2022-12-18T13:51:22;100606.63;;;18.84;59.56
60676;BME280;46716;38.014;-7.874;2022-12-18T13:53:33;100628.00;;;18.84;61.00
60676;BME280;46716;38.014;-7.874;2022-12-18T13:55:37;100632.25;;;18.61;62.67
60676;BME280;46716;38.014;-7.874;2022-12-18T13:57:38;100620.91;;;18.57;61.30
60676;BME280;46716;38.014;-7.874;2022-12-18T13:59:41;100626.84;;;18.75;61.57
60676;BME280;46716;38.014;-7.874;2022-12-18T14:01:51;100620.41;;;19.04;61.84
60676;BME280;46716;38.014;-7.874;2022-12-18T14:04:11;100624.50;;;19.10;59.81
60676;BME280;46716;38.014;-7.874;2022-12-18T14:06:13;100605.78;;;19.10;61.03
60676;BME280;46716;38.014;-7.874;2022-12-18T14:08:15;100625.97;;;19.01;60.28
60676;BME280;46716;38.014;-7.874;2022-12-18T14:10:16;100619.44;;;19.05;61.84
60676;BME280;46716;38.014;-7.874;2022-12-18T14:12:36;100624.56;;;18.95;62.03
60676;BME280;46716;38.014;-7.874;2022-12-18T14:14:56;100628.31;;;18.79;63.40
60676;BME280;46716;38.014;-7.874;2022-12-18T14:16:57;100630.03;;;19.06;62.70
60676;BME280;46716;38.014;-7.874;2022-12-18T14:18:59;100624.25;;;19.00;61.34
60676;BME280;46716;38.014;-7.874;2022-12-18T14:21:02;100632.91;;;18.77;61.22
60676;BME280;46716;38.014;-7.874;2022-12-18T14:23:04;100625.53;;;18.81;60.39
60676;BME280;46716;38.014;-7.874;2022-12-18T14:25:23;100624.25;;;19.00;60.49
60676;BME280;46716;38.014;-7.874;2022-12-18T14:28:14;100629.28;;;18.91;57.72
60676;BME280;46716;38.014;-7.874;2022-12-18T14:30:27;100637.84;;;18.83;60.95
60676;BME280;46716;38.014;-7.874;2022-12-18T14:32:28;100631.53;;;18.98;59.92
60676;BME280;46716;38.014;-7.874;2022-12-18T14:34:29;100625.13;;;18.87;59.40
60676;BME280;46716;38.014;-7.874;2022-12-18T14:36:30;100634.31;;;18.83;60.57
60676;BME280;46716;38.014;-7.874;2022-12-18T14:38:35;100638.38;;;19.02;60.70
60676;BME280;46716;38.014;-7.874;2022-12-18T14:40:36;100639.59;;;19.11;62.97
60676;BME280;46716;38.014;-7.874;2022-12-18T14:42:37;100617.50;;;19.07;59.64
60676;BME280;46716;38.014;-7.874;2022-12-18T14:44:38;100621.28;;;18.91;59.13
60676;BME280;46716;38.014;-7.874;2022-12-18T14:46:41;100632.81;;;18.66;60.43
60676;BME280;46716;38.014;-7.874;2022-12-18T14:48:46;100615.25;;;18.75;60.71
60676;BME280;46716;38.014;-7.874;2022-12-18T14:51:03;100632.38;;;18.85;59.64
60676;BME280;46716;38.014;-7.874;2022-12-18T14:53:04;100620.09;;;18.69;60.33
60676;BME280;46716;38.014;-7.874;2022-12-18T14:55:18;100629.56;;;18.61;57.70
60676;BME280;46716;38.014;-7.874;2022-12-18T14:57:25;100638.44;;;18.48;61.26
60676;BME280;46716;38.014;-7.874;2022-12-18T14:59:30;100636.88;;;18.58;60.12
60676;BME280;46716;38.014;-7.874;2022-12-18T15:01:44;100622.31;;;18.50;63.62
60676;BME280;46716;38.014;-7.874;2022-12-18T15:03:46;100627.88;;;18.60;60.89
60676;BME280;46716;38.014;-7.874;2022-12-18T15:05:48;100629.06;;;18.68;63.35
60676;BME280;46716;38.014;-7.874;2022-12-18T15:07:52;100630.69;;;18.71;59.66
60676;BME280;46716;38.014;-7.874;2022-12-18T15:10:15;100634.63;;;18.65;60.60
60676;BME280;46716;38.014;-7.874;2022-12-18T15:12:26;100632.38;;;18.59;61.22
60676;BME280;46716;38.014;-7.874;2022-12-18T15:14:35;100633.22;;;18.73;60.74
60676;BME280;46716;38.014;-7.874;2022-12-18T15:16:39;100626.38;;;18.68;60.91
60676;BME280;46716;38.014;-7.874;2022-12-18T15:18:42;100637.50;;;18.62;60.79
60676;BME280;46716;38.014;-7.874;2022-12-18T15:20:51;100639.75;;;18.55;61.48
60676;BME280;46716;38.014;-7.874;2022-12-18T15:22:52;100637.59;;;18.48;61.79
60676;BME280;46716;38.014;-7.874;2022-12-18T15:24:55;100628.94;;;18.57;62.11
60676;BME280;46716;38.014;-7.874;2022-12-18T15:26:56;100633.13;;;18.61;62.03
60676;BME280;46716;38.014;-7.874;2022-12-18T15:28:57;100620.22;;;18.27;62.24
60676;BME280;46716;38.014;-7.874;2022-12-18T15:33:23;100613.38;;;18.08;64.41
60676;BME280;46716;38.014;-7.874;2022-12-18T15:35:25;100625.97;;;18.21;64.33
60676;BME280;46716;38.014;-7.874;2022-12-18T15:37:26;100622.97;;;18.13;64.29
60676;BME280;46716;38.014;-7.874;2022-12-18T15:39:27;100617.72;;;17.97;64.08
60676;BME280;46716;38.014;-7.874;2022-12-18T15:41:27;100619.94;;;17.90;65.08
60676;BME280;46716;38.014;-7.874;2022-12-18T15:43:28;100610.34;;;17.73;63.82
60676;BME280;46716;38.014;-7.874;2022-12-18T15:45:35;100623.13;;;17.82;66.48
60676;BME280;46716;38.014;-7.874;2022-12-18T15:47:37;100620.94;;;17.74;67.91
60676;BME280;46716;38.014;-7.874;2022-12-18T15:49:38;100612.19;;;17.72;68.46
60676;BME280;46716;38.014;-7.874;2022-12-18T15:51:39;100625.44;;;17.74;67.40
60676;BME280;46716;38.014;-7.874;2022-12-18T15:53:41;100630.06;;;17.57;65.95
60676;BME280;46716;38.014;-7.874;2022-12-18T15:55:42;100625.03;;;17.38;66.52
60676;BME280;46716;38.014;-7.874;2022-12-18T15:58:01;100634.66;;;17.26;67.52
60676;BME280;46716;38.014;-7.874;2022-12-18T16:00:02;100617.78;;;17.11;67.92
60676;BME280;46716;38.014;-7.874;2022-12-18T16:02:11;100617.00;;;17.09;69.01
60676;BME280;46716;38.014;-7.874;2022-12-18T16:04:18;100630.06;;;17.13;69.48
60676;BME280;46716;38.014;-7.874;2022-12-18T16:06:22;100631.50;;;17.19;67.95
60676;BME280;46716;38.014;-7.874;2022-12-18T16:08:23;100611.47;;;16.97;69.07
60676;BME280;46716;38.014;-7.874;2022-12-18T16:10:25;100631.75;;;17.00;69.78
60676;BME280;46716;38.014;-7.874;2022-12-18T16:12:26;100635.19;;;16.87;70.13
60676;BME280;46716;38.014;-7.874;2022-12-18T16:14:33;100613.22;;;16.53;72.56
60676;BME280;46716;38.014;-7.874;2022-12-18T16:16:37;100629.88;;;16.56;73.33
60676;BME280;46716;38.014;-7.874;2022-12-18T16:18:48;100635.09;;;16.58;73.40
60676;BME280;46716;38.014;-7.874;2022-12-18T16:20:52;100649.41;;;16.57;74.42
60676;BME280;46716;38.014;-7.874;2022-12-18T16:22:53;100631.47;;;16.59;73.39
60676;BME280;46716;38.014;-7.874;2022-12-18T16:24:57;100652.69;;;16.77;74.50
60676;BME280;46716;38.014;-7.874;2022-12-18T16:26:59;100666.78;;;16.79;72.99
60676;BME280;46716;38.014;-7.874;2022-12-18T16:29:00;100661.63;;;16.90;73.11
60676;BME280;46716;38.014;-7.874;2022-12-18T16:31:01;100648.56;;;16.71;73.46
60676;BME280;46716;38.014;-7.874;2022-12-18T16:33:02;100654.13;;;16.83;73.12
60676;BME280;46716;38.014;-7.874;2022-12-18T16:35:03;100657.81;;;16.80;74.08
60676;BME280;46716;38.014;-7.874;2022-12-18T16:37:06;100669.75;;;16.89;73.79
60676;BME280;46716;38.014;-7.874;2022-12-18T16:39:08;100652.69;;;16.77;72.37
60676;BME280;46716;38.014;-7.874;2022-12-18T16:41:18;100658.03;;;16.77;73.52
60676;BME280;46716;38.014;-7.874;2022-12-18T16:43:31;100664.47;;;16.73;74.73
60676;BME280;46716;38.014;-7.874;2022-12-18T16:45:32;100672.84;;;16.66;75.50
60676;BME280;46716;38.014;-7.874;2022-12-18T16:47:34;100683.00;;;16.60;76.62
60676;BME280;46716;38.014;-7.874;2022-12-18T16:49:34;100666.47;;;16.69;77.63
60676;BME280;46716;38.014;-7.874;2022-12-18T16:51:35;100666.53;;;16.53;78.85
60676;BME280;46716;38.014;-7.874;2022-12-18T16:53:36;100664.97;;;16.49;79.89
60676;BME280;46716;38.014;-7.874;2022-12-18T16:55:37;100657.97;;;16.31;80.93
60676;BME280;46716;38.014;-7.874;2022-12-18T16:57:38;100666.72;;;16.34;81.46
60676;BME280;46716;38.014;-7.874;2022-12-18T16:59:39;100656.69;;;16.23;82.64
60676;BME280;46716;38.014;-7.874;2022-12-18T17:01:40;100652.31;;;16.05;84.29
60676;BME280;46716;38.014;-7.874;2022-12-18T17:03:42;100660.06;;;16.10;84.76
60676;BME280;46716;38.014;-7.874;2022-12-18T17:05:43;100656.38;;;15.97;85.80
60676;BME280;46716;38.014;-7.874;2022-12-18T17:07:44;100629.38;;;15.71;87.80
60676;BME280;46716;38.014;-7.874;2022-12-18T17:09:45;100654.44;;;15.66;89.54
60676;BME280;46716;38.014;-7.874;2022-12-18T17:11:46;100645.44;;;15.53;90.45
60676;BME280;46716;38.014;-7.874;2022-12-18T17:13:46;100632.00;;;15.38;90.62
60676;BME280;46716;38.014;-7.874;2022-12-18T17:15:47;100656.38;;;15.30;91.98
60676;BME280;46716;38.014;-7.874;2022-12-18T17:17:48;100652.44;;;15.04;94.62
60676;BME280;46716;38.014;-7.874;2022-12-18T17:19:51;100655.50;;;14.96;95.73
60676;BME280;46716;38.014;-7.874;2022-12-18T17:21:52;100666.53;;;14.88;96.92
60676;BME280;46716;38.014;-7.874;2022-12-18T17:23:53;100674.34;;;14.74;98.11
60676;BME280;46716;38.014;-7.874;2022-12-18T17:25:58;100643.97;;;14.42;100.00
60676;BME280;46716;38.014;-7.874;2022-12-18T17:27:59;100667.66;;;14.47;100.00
60676;BME280;46716;38.014;-7.874;2022-12-18T17:30:01;100660.25;;;14.36;100.00
60676;BME280;46716;38.014;-7.874;2022-12-18T17:32:02;100663.91;;;14.34;100.00
60676;BME280;46716;38.014;-7.874;2022-12-18T17:34:03;100665.13;;;14.26;100.00
60676;BME280;46716;38.014;-7.874;2022-12-18T17:36:05;100651.31;;;14.20;100.00
60676;BME280;46716;38.014;-7.874;2022-12-18T17:38:06;100650.50;;;14.18;100.00
60676;BME280;46716;38.014;-7.874;2022-12-18T17:40:09;100660.66;;;14.09;100.00
60676;BME280;46716;38.014;-7.874;2022-12-18T17:42:10;100659.09;;;14.05;100.00
60676;BME280;46716;38.014;-7.874;2022-12-18T17:44:11;100640.66;;;14.02;100.00
60676;BME280;46716;38.014;-7.874;2022-12-18T17:46:14;100664.00;;;14.13;100.00
60676;BME280;46716;38.014;-7.874;2022-12-18T17:48:15;100655.88;;;13.98;100.00
60676;BME280;46716;38.014;-7.874;2022-12-18T17:50:16;100664.13;;;13.92;100.00
